sensor_id;sensor_type;location;lat;lon;timestamp;P1;P2;P0
74432;PMS7003;62865;53.146;23.172;2022-11-14T00:09:08;41.5;33.5;19.5
74432;PMS7003;62865;53.146;23.172;2022-11-14T00:14:02;31.2;27.8;17.2
74432;PMS7003;62865;53.146;23.172;2022-11-14T00:19:32;28.4;26;16.4
74432;PMS7003;62865;53.146;23.172;2022-11-14T00:24:48;25.4;21;12.2
74432;PMS7003;62865;53.146;23.172;2022-11-14T00:29:02;22.6;19.6;13.6
74432;PMS7003;62865;53.146;23.172;2022-11-14T00:34:22;20.3;17;11.3
74432;PMS7003;62865;53.146;23.172;2022-11-14T00:39:48;18.8;16.6;11
74432;PMS7003;62865;53.146;23.172;2022-11-14T00:44:34;20;17;11.4
74432;PMS7003;62865;53.146;23.172;2022-11-14T00:49:12;22.2;18.8;13
74432;PMS7003;62865;53.146;23.172;2022-11-14T00:54:36;19.4;17;10.8
74432;PMS7003;62865;53.146;23.172;2022-11-14T00:59:20;17.6;14.6;10
74432;PMS7003;62865;53.146;23.172;2022-11-14T01:04:48;15.4;13;9.6
74432;PMS7003;62865;53.146;23.172;2022-11-14T01:09:16;17.6;14.6;10
74432;PMS7003;62865;53.146;23.172;2022-11-14T01:14:44;22;15.8;9.8
74432;PMS7003;62865;53.146;23.172;2022-11-14T01:19:16;24;18.8;12.6
74432;PMS7003;62865;53.146;23.172;2022-11-14T01:24:12;24.2;20.6;11.4
74432;PMS7003;62865;53.146;23.172;2022-11-14T01:29:38;22.6;19.6;11.8
74432;PMS7003;62865;53.146;23.172;2022-11-14T01:34:34;21.2;17.6;11.8
74432;PMS7003;62865;53.146;23.172;2022-11-14T01:39:38;17.6;15.2;10.8
74432;PMS7003;62865;53.146;23.172;2022-11-14T01:44:50;20.8;18.4;11.4
74432;PMS7003;62865;53.146;23.172;2022-11-14T01:49:18;20.4;17.8;10.8
74432;PMS7003;62865;53.146;23.172;2022-11-14T01:54:50;21.2;18;11.6
74432;PMS7003;62865;53.146;23.172;2022-11-14T01:59:39;16.8;14.6;9
74432;PMS7003;62865;53.146;23.172;2022-11-14T02:04:23;17.6;15.4;10.4
74432;PMS7003;62865;53.146;23.172;2022-11-14T02:09:34;20.6;17;11.4
74432;PMS7003;62865;53.146;23.172;2022-11-14T02:14:22;18.6;15.6;11
74432;PMS7003;62865;53.146;23.172;2022-11-14T02:19:40;23.2;19.2;12.2
74432;PMS7003;62865;53.146;23.172;2022-11-14T02:24:03;25.8;22.6;14
74432;PMS7003;62865;53.146;23.172;2022-11-14T02:29:50;20.6;19.4;11.8
74432;PMS7003;62865;53.146;23.172;2022-11-14T02:34:22;21.4;18.2;11.6
74432;PMS7003;62865;53.146;23.172;2022-11-14T02:39:02;17.6;15.4;10.2
74432;PMS7003;62865;53.146;23.172;2022-11-14T02:44:12;17.4;15.6;10.2
74432;PMS7003;62865;53.146;23.172;2022-11-14T02:49:34;17.6;14.2;9
74432;PMS7003;62865;53.146;23.172;2022-11-14T02:54:38;16.8;13.8;8.8
74432;PMS7003;62865;53.146;23.172;2022-11-14T02:59:50;16.4;13.2;8.8
74432;PMS7003;62865;53.146;23.172;2022-11-14T03:04:02;15.8;14.2;9.2
74432;PMS7003;62865;53.146;23.172;2022-11-14T03:09:48;16.4;13.6;9
74432;PMS7003;62865;53.146;23.172;2022-11-14T03:14:38;17.6;16.2;10.4
74432;PMS7003;62865;53.146;23.172;2022-11-14T03:19:02;17.6;15.8;10
74432;PMS7003;62865;53.146;23.172;2022-11-14T03:24:48;16.8;13.6;9.2
74432;PMS7003;62865;53.146;23.172;2022-11-14T03:29:02;15.4;13.4;9.2
74432;PMS7003;62865;53.146;23.172;2022-11-14T03:34:50;15.2;12.4;8.4
74432;PMS7003;62865;53.146;23.172;2022-11-14T03:39:02;14.2;13.2;9.2
74432;PMS7003;62865;53.146;23.172;2022-11-14T03:44:52;15.4;12.8;8.6
74432;PMS7003;62865;53.146;23.172;2022-11-14T03:49:02;16.8;12.2;8
74432;PMS7003;62865;53.146;23.172;2022-11-14T03:54:02;14.6;11.4;8
74432;PMS7003;62865;53.146;23.172;2022-11-14T03:59:02;12.4;11;8
74432;PMS7003;62865;53.146;23.172;2022-11-14T04:04:36;12.4;11.2;7.8
74432;PMS7003;62865;53.146;23.172;2022-11-14T04:09:36;10.4;10;6.6
74432;PMS7003;62865;53.146;23.172;2022-11-14T04:14:52;11.2;8.6;5.4
74432;PMS7003;62865;53.146;23.172;2022-11-14T04:19:26;11.4;9.4;6.4
74432;PMS7003;62865;53.146;23.172;2022-11-14T04:24:52;12;10;7
74432;PMS7003;62865;53.146;23.172;2022-11-14T04:29:04;12;10;6
74432;PMS7003;62865;53.146;23.172;2022-11-14T04:34:02;11.2;10;6.8
74432;PMS7003;62865;53.146;23.172;2022-11-14T04:39:36;12.6;10.8;7.8
74432;PMS7003;62865;53.146;23.172;2022-11-14T04:44:10;10.6;9.6;6.4
74432;PMS7003;62865;53.146;23.172;2022-11-14T04:49:52;10;8.6;6.6
74432;PMS7003;62865;53.146;23.172;2022-11-14T04:54:24;11.2;9.6;6.8
74432;PMS7003;62865;53.146;23.172;2022-11-14T04:59:52;11.4;9.4;7.2
74432;PMS7003;62865;53.146;23.172;2022-11-14T05:04:02;10.2;9.2;5.8
74432;PMS7003;62865;53.146;23.172;2022-11-14T05:09:02;10.4;9.8;6
74432;PMS7003;62865;53.146;23.172;2022-11-14T05:14:16;12;10.8;7.8
74432;PMS7003;62865;53.146;23.172;2022-11-14T05:19:34;12.2;10.6;7.4
74432;PMS7003;62865;53.146;23.172;2022-11-14T05:24:22;10.8;9.4;6.8
74432;PMS7003;62865;53.146;23.172;2022-11-14T05:29:32;11.4;9.8;6.8
74432;PMS7003;62865;53.146;23.172;2022-11-14T05:34:40;12.4;9.8;6.8
74432;PMS7003;62865;53.146;23.172;2022-11-14T05:39:50;12.6;10.8;7.6
74432;PMS7003;62865;53.146;23.172;2022-11-14T05:44:52;11.8;9.8;6.5
74432;PMS7003;62865;53.146;23.172;2022-11-14T05:49:36;14.6;11;7.4
74432;PMS7003;62865;53.146;23.172;2022-11-14T05:54:36;12.8;12;8.4
74432;PMS7003;62865;53.146;23.172;2022-11-14T05:59:18;14.6;13;9.6
74432;PMS7003;62865;53.146;23.172;2022-11-14T06:04:50;14.8;13.4;9
74432;PMS7003;62865;53.146;23.172;2022-11-14T06:09:12;13.2;11.6;8.2
74432;PMS7003;62865;53.146;23.172;2022-11-14T06:14:52;14;11.2;8
74432;PMS7003;62865;53.146;23.172;2022-11-14T06:19:26;12.6;10.6;7.2
74432;PMS7003;62865;53.146;23.172;2022-11-14T06:24:10;10.6;9.6;6
74432;PMS7003;62865;53.146;23.172;2022-11-14T06:29:38;9;8;5.8
74432;PMS7003;62865;53.146;23.172;2022-11-14T06:34:26;8.8;7.6;5
74432;PMS7003;62865;53.146;23.172;2022-11-14T06:39:14;7.8;7.4;4.6
74432;PMS7003;62865;53.146;23.172;2022-11-14T06:44:52;8.2;7.4;4.8
74432;PMS7003;62865;53.146;23.172;2022-11-14T06:49:30;10;7.6;4.6
74432;PMS7003;62865;53.146;23.172;2022-11-14T06:54:52;10.4;9.2;5.8
74432;PMS7003;62865;53.146;23.172;2022-11-14T06:59:52;11.8;9.4;6.4
74432;PMS7003;62865;53.146;23.172;2022-11-14T07:04:36;9.6;7.8;5.2
74432;PMS7003;62865;53.146;23.172;2022-11-14T07:09:40;10;9.2;5.8
74432;PMS7003;62865;53.146;23.172;2022-11-14T07:14:02;9;7;5.2
74432;PMS7003;62865;53.146;23.172;2022-11-14T07:19:52;7.4;6.8;4.6
74432;PMS7003;62865;53.146;23.172;2022-11-14T07:24:20;11.6;9.8;5.8
74432;PMS7003;62865;53.146;23.172;2022-11-14T07:29:54;9.8;8.8;5.4
74432;PMS7003;62865;53.146;23.172;2022-11-14T07:34:24;12;9.6;6.2
74432;PMS7003;62865;53.146;23.172;2022-11-14T07:39:02;8.2;7.8;5
74432;PMS7003;62865;53.146;23.172;2022-11-14T07:44:12;7.4;6.2;4.6
74432;PMS7003;62865;53.146;23.172;2022-11-14T07:49:36;8.8;7.4;5
74432;PMS7003;62865;53.146;23.172;2022-11-14T07:54:00;12;9;6.8
74432;PMS7003;62865;53.146;23.172;2022-11-14T07:59:34;11.8;10;7
74432;PMS7003;62865;53.146;23.172;2022-11-14T08:04:00;13.8;12.2;8.2
74432;PMS7003;62865;53.146;23.172;2022-11-14T08:09:52;13.6;12.4;9
74432;PMS7003;62865;53.146;23.172;2022-11-14T08:14:38;13.8;11.2;7.4
74432;PMS7003;62865;53.146;23.172;2022-11-14T08:19:40;12.8;11.4;8.2
74432;PMS7003;62865;53.146;23.172;2022-11-14T08:24:29;12.4;9.8;5.8
74432;PMS7003;62865;53.146;23.172;2022-11-14T08:29:02;12.8;10.8;6.6
74432;PMS7003;62865;53.146;23.172;2022-11-14T08:34:52;12.4;11;6.6
74432;PMS7003;62865;53.146;23.172;2022-11-14T08:39:00;13;11.8;7.8
74432;PMS7003;62865;53.146;23.172;2022-11-14T08:44:48;15.4;12.4;7
74432;PMS7003;62865;53.146;23.172;2022-11-14T08:49:20;9.8;9;6.4
74432;PMS7003;62865;53.146;23.172;2022-11-14T08:54:20;10.2;8;5.6
74432;PMS7003;62865;53.146;23.172;2022-11-14T08:59:26;13;10.2;6.6
74432;PMS7003;62865;53.146;23.172;2022-11-14T09:04:50;10.4;9.8;6.2
74432;PMS7003;62865;53.146;23.172;2022-11-14T09:09:02;13.6;11.8;7.4
74432;PMS7003;62865;53.146;23.172;2022-11-14T09:14:36;9.4;8.8;5.6
74432;PMS7003;62865;53.146;23.172;2022-11-14T09:19:16;12;10.2;6.6
74432;PMS7003;62865;53.146;23.172;2022-11-14T09:24:40;8.6;7;5.2
74432;PMS7003;62865;53.146;23.172;2022-11-14T09:29:52;10.2;9.8;6.8
74432;PMS7003;62865;53.146;23.172;2022-11-14T09:34:32;10.2;9;6.4
74432;PMS7003;62865;53.146;23.172;2022-11-14T09:39:00;8.8;7.6;5.2
74432;PMS7003;62865;53.146;23.172;2022-11-14T09:44:38;9.8;8;5.2
74432;PMS7003;62865;53.146;23.172;2022-11-14T09:49:03;14.6;12;7.8
74432;PMS7003;62865;53.146;23.172;2022-11-14T09:54:39;14.4;12.4;8.2
74432;PMS7003;62865;53.146;23.172;2022-11-14T09:59:12;12.4;9.8;7
74432;PMS7003;62865;53.146;23.172;2022-11-14T10:04:55;11;9.8;6
74432;PMS7003;62865;53.146;23.172;2022-11-14T10:09:21;12.6;10.4;7.2
74432;PMS7003;62865;53.146;23.172;2022-11-14T10:14:45;12;10;7.2
74432;PMS7003;62865;53.146;23.172;2022-11-14T10:19:13;11.3;10;7
74432;PMS7003;62865;53.146;23.172;2022-11-14T10:24:57;10.6;9.4;6.6
74432;PMS7003;62865;53.146;23.172;2022-11-14T10:29:56;12;8.4;6
74432;PMS7003;62865;53.146;23.172;2022-11-14T10:34:16;10.8;9.2;6
74432;PMS7003;62865;53.146;23.172;2022-11-14T10:39:37;9.2;7.8;5.8
74432;PMS7003;62865;53.146;23.172;2022-11-14T10:44:41;5.6;5.2;4.4
74432;PMS7003;62865;53.146;23.172;2022-11-14T10:49:38;8;7;4.8
74432;PMS7003;62865;53.146;23.172;2022-11-14T10:54:38;7;6;4.6
74432;PMS7003;62865;53.146;23.172;2022-11-14T10:59:22;8.6;6.6;4.6
74432;PMS7003;62865;53.146;23.172;2022-11-14T11:04:27;7;6;4.4
74432;PMS7003;62865;53.146;23.172;2022-11-14T11:09:37;7.8;7.2;4.4
74432;PMS7003;62865;53.146;23.172;2022-11-14T11:14:14;7.8;6.6;4.6
74432;PMS7003;62865;53.146;23.172;2022-11-14T11:19:52;4.4;4;2.8
74432;PMS7003;62865;53.146;23.172;2022-11-14T11:24:25;4;3.6;2.6
74432;PMS7003;62865;53.146;23.172;2022-11-14T11:29:38;5.2;4.4;3.2
74432;PMS7003;62865;53.146;23.172;2022-11-14T11:34:25;4.8;4.4;3.2
74432;PMS7003;62865;53.146;23.172;2022-11-14T11:39:49;3.8;3.6;3
74432;PMS7003;62865;53.146;23.172;2022-11-14T11:44:39;5.6;5.2;3.8
74432;PMS7003;62865;53.146;23.172;2022-11-14T11:49:12;7.8;6.2;4.4
74432;PMS7003;62865;53.146;23.172;2022-11-14T11:54:17;8.2;5.8;4
74432;PMS7003;62865;53.146;23.172;2022-11-14T11:59:35;6.4;5.2;3.8
74432;PMS7003;62865;53.146;23.172;2022-11-14T12:04:02;5.2;3.8;2.4
74432;PMS7003;62865;53.146;23.172;2022-11-14T12:09:26;4.6;3.6;2.8
74432;PMS7003;62865;53.146;23.172;2022-11-14T12:14:19;3.8;3;2
74432;PMS7003;62865;53.146;23.172;2022-11-14T12:19:08;6;4.8;3.4
74432;PMS7003;62865;53.146;23.172;2022-11-14T12:24:48;9.8;8.4;5.6
74432;PMS7003;62865;53.146;23.172;2022-11-14T12:29:23;6.2;4.6;3.4
74432;PMS7003;62865;53.146;23.172;2022-11-14T12:34:46;5.2;3.8;3
74432;PMS7003;62865;53.146;23.172;2022-11-14T12:39:02;4.4;4.2;3
74432;PMS7003;62865;53.146;23.172;2022-11-14T12:44:39;4.8;4;3
74432;PMS7003;62865;53.146;23.172;2022-11-14T12:49:55;5.4;4.4;3
74432;PMS7003;62865;53.146;23.172;2022-11-14T12:54:50;5;5;3.4
74432;PMS7003;62865;53.146;23.172;2022-11-14T12:59:53;6.2;4.6;3.6
74432;PMS7003;62865;53.146;23.172;2022-11-14T13:04:15;6;4.8;3.6
74432;PMS7003;62865;53.146;23.172;2022-11-14T13:09:40;6.6;5.8;4.2
74432;PMS7003;62865;53.146;23.172;2022-11-14T13:14:48;7.6;6.4;4.6
74432;PMS7003;62865;53.146;23.172;2022-11-14T13:19:52;8.8;7.6;5.4
74432;PMS7003;62865;53.146;23.172;2022-11-14T13:24:13;8.6;7.6;5
74432;PMS7003;62865;53.146;23.172;2022-11-14T13:29:47;9.6;8.4;5.8
74432;PMS7003;62865;53.146;23.172;2022-11-14T13:34:30;10.4;8.6;5.4
74432;PMS7003;62865;53.146;23.172;2022-11-14T13:39:39;8.6;8.4;6
74432;PMS7003;62865;53.146;23.172;2022-11-14T13:44:04;10;8.8;6.6
74432;PMS7003;62865;53.146;23.172;2022-11-14T13:49:15;12;10;6.6
74432;PMS7003;62865;53.146;23.172;2022-11-14T13:54:15;12;11;7.4
74432;PMS7003;62865;53.146;23.172;2022-11-14T13:59:25;13.4;11.6;8.2
74432;PMS7003;62865;53.146;23.172;2022-11-14T14:04:55;14.2;13;8.6
74432;PMS7003;62865;53.146;23.172;2022-11-14T14:09:24;15.4;13.2;8.2
74432;PMS7003;62865;53.146;23.172;2022-11-14T14:14:16;14.8;12.2;7.6
74432;PMS7003;62865;53.146;23.172;2022-11-14T14:19:31;13.2;12;7.4
74432;PMS7003;62865;53.146;23.172;2022-11-14T14:24:39;15.2;12.4;8
74432;PMS7003;62865;53.146;23.172;2022-11-14T14:29:26;11;9;6.4
74432;PMS7003;62865;53.146;23.172;2022-11-14T14:34:36;12;11.4;6.6
74432;PMS7003;62865;53.146;23.172;2022-11-14T14:39:14;12.6;11.6;7.2
74432;PMS7003;62865;53.146;23.172;2022-11-14T14:44:52;14.6;11.6;7.4
74432;PMS7003;62865;53.146;23.172;2022-11-14T14:49:52;14.4;12.4;7.6
74432;PMS7003;62865;53.146;23.172;2022-11-14T14:54:37;15;12.6;8.6
74432;PMS7003;62865;53.146;23.172;2022-11-14T14:59:38;16.8;14.2;9.2
74432;PMS7003;62865;53.146;23.172;2022-11-14T15:04:03;16.2;14.6;9
74432;PMS7003;62865;53.146;23.172;2022-11-14T15:09:55;21.2;16.2;11.2
74432;PMS7003;62865;53.146;23.172;2022-11-14T15:14:25;19;14.4;9.8
74432;PMS7003;62865;53.146;23.172;2022-11-14T15:19:54;18;15;10.2
74432;PMS7003;62865;53.146;23.172;2022-11-14T15:24:22;15;13.8;9.6
74432;PMS7003;62865;53.146;23.172;2022-11-14T15:29:23;19.8;16.5;11
74432;PMS7003;62865;53.146;23.172;2022-11-14T15:34:21;19.6;17.6;11
74432;PMS7003;62865;53.146;23.172;2022-11-14T15:39:36;17.8;14.4;10.4
74432;PMS7003;62865;53.146;23.172;2022-11-14T15:44:28;19.6;17.8;11.2
74432;PMS7003;62865;53.146;23.172;2022-11-14T15:49:23;20.6;17.4;10.8
74432;PMS7003;62865;53.146;23.172;2022-11-14T15:54:02;22.8;18.8;12.4
74432;PMS7003;62865;53.146;23.172;2022-11-14T15:59:52;20;18.6;11.6
74432;PMS7003;62865;53.146;23.172;2022-11-14T16:04:54;21.6;18.2;12.2
74432;PMS7003;62865;53.146;23.172;2022-11-14T16:09:36;21.4;17.8;11.4
74432;PMS7003;62865;53.146;23.172;2022-11-14T16:14:40;22.8;20;12.2
74432;PMS7003;62865;53.146;23.172;2022-11-14T16:19:13;20;17.6;12
74432;PMS7003;62865;53.146;23.172;2022-11-14T16:24:43;25.2;21;12.6
74432;PMS7003;62865;53.146;23.172;2022-11-14T16:29:23;25;21.6;12.8
74432;PMS7003;62865;53.146;23.172;2022-11-14T16:34:54;24.2;21.2;13
74432;PMS7003;62865;53.146;23.172;2022-11-14T16:39:22;23.6;20;12.6
74432;PMS7003;62865;53.146;23.172;2022-11-14T16:44:13;24.4;20;12.8
74432;PMS7003;62865;53.146;23.172;2022-11-14T16:49:40;24.8;20.6;13.8
74432;PMS7003;62865;53.146;23.172;2022-11-14T16:54:36;29;22.6;14.2
74432;PMS7003;62865;53.146;23.172;2022-11-14T16:59:12;27;22.8;15.6
74432;PMS7003;62865;53.146;23.172;2022-11-14T17:04:34;26.6;22;13
74432;PMS7003;62865;53.146;23.172;2022-11-14T17:09:12;24.8;22.4;14
74432;PMS7003;62865;53.146;23.172;2022-11-14T17:14:54;27.4;25;15.4
74432;PMS7003;62865;53.146;23.172;2022-11-14T17:19:54;21.8;18.6;13.2
74432;PMS7003;62865;53.146;23.172;2022-11-14T17:24:24;21.2;16.6;12
74432;PMS7003;62865;53.146;23.172;2022-11-14T17:29:40;19.6;16.8;10.6
74432;PMS7003;62865;53.146;23.172;2022-11-14T17:34:12;22.6;18.8;11.6
74432;PMS7003;62865;53.146;23.172;2022-11-14T17:39:54;22.4;18.8;11.4
74432;PMS7003;62865;53.146;23.172;2022-11-14T17:44:10;25.4;21.6;13.8
74432;PMS7003;62865;53.146;23.172;2022-11-14T17:49:54;24.6;21.4;13.2
74432;PMS7003;62865;53.146;23.172;2022-11-14T17:54:20;26.4;22.6;14.2
74432;PMS7003;62865;53.146;23.172;2022-11-14T17:59:12;23.6;21.6;14.4
74432;PMS7003;62865;53.146;23.172;2022-11-14T18:04:28;29.6;24.8;15.2
74432;PMS7003;62865;53.146;23.172;2022-11-14T18:09:36;21.2;19.8;12
74432;PMS7003;62865;53.146;23.172;2022-11-14T18:14:02;22.4;18.4;11.4
74432;PMS7003;62865;53.146;23.172;2022-11-14T18:19:34;19.8;17.8;10.8
74432;PMS7003;62865;53.146;23.172;2022-11-14T18:24:03;18;14.2;9.4
74432;PMS7003;62865;53.146;23.172;2022-11-14T18:29:41;17.8;15;10.4
74432;PMS7003;62865;53.146;23.172;2022-11-14T18:34:40;20.6;16.2;11.2
74432;PMS7003;62865;53.146;23.172;2022-11-14T18:39:42;16.2;13.8;8.6
74432;PMS7003;62865;53.146;23.172;2022-11-14T18:44:22;17.2;13.2;9
74432;PMS7003;62865;53.146;23.172;2022-11-14T18:49:02;18.4;14.8;9.6
74432;PMS7003;62865;53.146;23.172;2022-11-14T18:54:18;15;12.6;8.8
74432;PMS7003;62865;53.146;23.172;2022-11-14T18:59:41;13;11.6;8.4
74432;PMS7003;62865;53.146;23.172;2022-11-14T19:04:24;11.6;9.6;6
74432;PMS7003;62865;53.146;23.172;2022-11-14T19:09:44;10.4;9.4;5.8
74432;PMS7003;62865;53.146;23.172;2022-11-14T19:14:12;14.2;11;8
74432;PMS7003;62865;53.146;23.172;2022-11-14T19:19:40;14.6;12.6;8
74432;PMS7003;62865;53.146;23.172;2022-11-14T19:24:28;14.2;12.4;7.4
74432;PMS7003;62865;53.146;23.172;2022-11-14T19:29:54;14.4;11.4;7.8
74432;PMS7003;62865;53.146;23.172;2022-11-14T19:34:54;14.2;13.4;9.4
74432;PMS7003;62865;53.146;23.172;2022-11-14T19:39:03;16.2;14.4;10
74432;PMS7003;62865;53.146;23.172;2022-11-14T19:44:30;16.4;13.4;8.8
74432;PMS7003;62865;53.146;23.172;2022-11-14T19:49:05;16.8;14.6;9.2
74432;PMS7003;62865;53.146;23.172;2022-11-14T19:54:42;14.6;12;8.8
74432;PMS7003;62865;53.146;23.172;2022-11-14T19:59:12;14.8;11.8;7.2
74432;PMS7003;62865;53.146;23.172;2022-11-14T20:04:12;15.2;11;6.8
74432;PMS7003;62865;53.146;23.172;2022-11-14T20:09:28;16;12.8;8.6
74432;PMS7003;62865;53.146;23.172;2022-11-14T20:14:42;12.8;12.2;7.4
74432;PMS7003;62865;53.146;23.172;2022-11-14T20:19:38;15.8;13.2;8.8
74432;PMS7003;62865;53.146;23.172;2022-11-14T20:24:52;16.8;13.8;8.2
74432;PMS7003;62865;53.146;23.172;2022-11-14T20:29:13;15.8;13.2;9.4
74432;PMS7003;62865;53.146;23.172;2022-11-14T20:34:40;15.8;13.4;9
74432;PMS7003;62865;53.146;23.172;2022-11-14T20:39:29;17.3;14.3;9.3
74432;PMS7003;62865;53.146;23.172;2022-11-14T20:44:54;16.6;14.4;9.6
74432;PMS7003;62865;53.146;23.172;2022-11-14T20:49:55;15.8;14;9.4
74432;PMS7003;62865;53.146;23.172;2022-11-14T20:54:22;15.2;12.6;8
74432;PMS7003;62865;53.146;23.172;2022-11-14T20:59:40;11;10;6.5
74432;PMS7003;62865;53.146;23.172;2022-11-14T21:04:40;20;13;9
74432;PMS7003;62865;53.146;23.172;2022-11-14T21:09:43;10;9;6
74432;PMS7003;62865;53.146;23.172;2022-11-14T21:14:22;13.7;10;5
74432;PMS7003;62865;53.146;23.172;2022-11-14T21:19:03;14;9;6
74432;PMS7003;62865;53.146;23.172;2022-11-14T21:29:42;14;13;7
74432;PMS7003;62865;53.146;23.172;2022-11-14T21:34:30;11;8;4.7
74432;PMS7003;62865;53.146;23.172;2022-11-14T21:39:53;12.7;11.3;6
74432;PMS7003;62865;53.146;23.172;2022-11-14T21:44:03;15.7;14;7
74432;PMS7003;62865;53.146;23.172;2022-11-14T21:49:40;16.8;13.5;8.3
74432;PMS7003;62865;53.146;23.172;2022-11-14T21:54:13;16;12.3;7.8
74432;PMS7003;62865;53.146;23.172;2022-11-14T21:59:48;16.2;13;8.4
74432;PMS7003;62865;53.146;23.172;2022-11-14T22:04:51;16.5;12.8;8
74432;PMS7003;62865;53.146;23.172;2022-11-14T22:09:03;18;13;8
74432;PMS7003;62865;53.146;23.172;2022-11-14T22:14:39;17.7;14;8.3
74432;PMS7003;62865;53.146;23.172;2022-11-14T22:19:37;16;12.8;8.2
74432;PMS7003;62865;53.146;23.172;2022-11-14T22:24:39;16.4;15.2;8.4
74432;PMS7003;62865;53.146;23.172;2022-11-14T22:29:19;15.6;11.4;7.6
74432;PMS7003;62865;53.146;23.172;2022-11-14T22:34:03;12.7;11;7
74432;PMS7003;62865;53.146;23.172;2022-11-14T22:39:25;14.4;13.4;8
74432;PMS7003;62865;53.146;23.172;2022-11-14T22:44:51;16.5;14.5;8.8
74432;PMS7003;62865;53.146;23.172;2022-11-14T22:49:21;22.7;16;8.3
74432;PMS7003;62865;53.146;23.172;2022-11-14T22:54:49;17.8;13.6;8.4
74432;PMS7003;62865;53.146;23.172;2022-11-14T22:59:09;16;12;9
74432;PMS7003;62865;53.146;23.172;2022-11-14T23:04:09;19.7;15;8.3
74432;PMS7003;62865;53.146;23.172;2022-11-14T23:09:19;12;9.5;6.5
74432;PMS7003;62865;53.146;23.172;2022-11-14T23:14:31;14.7;12;7.7
74432;PMS7003;62865;53.146;23.172;2022-11-14T23:19:47;17;13;7.5
74432;PMS7003;62865;53.146;23.172;2022-11-14T23:24:04;16.5;12;7
74432;PMS7003;62865;53.146;23.172;2022-11-14T23:29:03;12.3;11.3;6.7
74432;PMS7003;62865;53.146;23.172;2022-11-14T23:34:27;22;20;11
74432;PMS7003;62865;53.146;23.172;2022-11-14T23:39:37;16.3;15;7.3
74432;PMS7003;62865;53.146;23.172;2022-11-14T23:44:03;14.4;12.2;6.6
74432;PMS7003;62865;53.146;23.172;2022-11-14T23:49:19;17;13;7
74432;PMS7003;62865;53.146;23.172;2022-11-14T23:54:09;16;12.3;7.3
74432;PMS7003;62865;53.146;23.172;2022-11-14T23:59:47;14.3;11.3;7.7
